Time;durP1;ratioP1;P1;durP2;ratioP2;P2;SDS_P1;SDS_P2;PMS_P1;PMS_P2;Temp;Humidity;BMP_temperature;BMP_pressure;BME280_temperature;BME280_humidity;BME280_pressure;Samples;Min_cycle;Max_cycle;Signal;HPM_P1;HPM_P2
2021/03/21 00:00:28;;;;;;;12.48;2.13;;;;;;;;;;5048942;28;20460;-59
2021/03/21 00:02:55;;;;;;;8.60;1.60;;;;;;;;;;5048843;28;20067;-59
2021/03/21 00:05:21;;;;;;;5.13;1.17;;;;;;;;;;5047941;28;20099;-59
2021/03/21 00:07:55;;;;;;;10.32;1.70;;;;;;;;;;5050527;28;20033;-59
2021/03/21 00:10:21;;;;;;;5.75;1.83;;;;;;;;;;5062643;28;20612;-59
2021/03/21 00:12:48;;;;;;;12.13;1.80;;;;;;;;;;5049738;28;20124;-59
2021/03/21 00:15:14;;;;;;;7.70;1.58;;;;;;;;;;5050143;28;20292;-59
2021/03/21 00:17:40;;;;;;;4.95;1.60;;;;;;;;;;5049485;28;20041;-59
2021/03/21 00:20:09;;;;;;;8.95;1.77;;;;;;;;;;5048593;28;20048;-59
2021/03/21 00:22:36;;;;;;;10.25;1.70;;;;;;;;;;5046422;28;20053;-59
2021/03/21 00:25:04;;;;;;;10.52;1.73;;;;;;;;;;5046609;28;20075;-59
2021/03/21 00:27:30;;;;;;;12.40;1.58;;;;;;;;;;5046611;28;20102;-59
2021/03/21 00:29:56;;;;;;;7.18;1.60;;;;;;;;;;5047590;28;20048;-59
2021/03/21 00:32:22;;;;;;;6.32;1.25;;;;;;;;;;5047493;28;20056;-59
2021/03/21 00:34:49;;;;;;;9.30;1.50;;;;;;;;;;5046104;28;20667;-59
2021/03/21 00:37:16;;;;;;;7.83;1.70;;;;;;;;;;5046169;28;20506;-59
2021/03/21 00:39:42;;;;;;;8.75;1.30;;;;;;;;;;5047074;28;20041;-59
2021/03/21 00:42:08;;;;;;;9.63;1.67;;;;;;;;;;5047599;28;20123;-59
2021/03/21 00:44:34;;;;;;;9.80;1.73;;;;;;;;;;5048225;28;20144;-59
2021/03/21 00:47:00;;;;;;;6.45;1.60;;;;;;;;;;5048363;28;20040;-59
2021/03/21 00:49:27;;;;;;;13.13;1.73;;;;;;;;;;5047494;28;20041;-59
2021/03/21 00:51:53;;;;;;;4.10;1.20;;;;;;;;;;5049302;28;20072;-59
2021/03/21 00:54:19;;;;;;;6.32;1.20;;;;;;;;;;5046250;28;20060;-59
2021/03/21 00:56:45;;;;;;;6.47;1.45;;;;;;;;;;5049637;28;20049;-59
2021/03/21 00:59:12;;;;;;;5.45;1.10;;;;;;;;;;5046580;28;20107;-59
2021/03/21 01:01:38;;;;;;;4.15;1.30;;;;;;;;;;5049298;28;20408;-59
2021/03/21 01:04:05;;;;;;;2.15;1.08;;;;;;;;;;5044195;28;20057;-59
2021/03/21 01:06:31;;;;;;;4.63;0.97;;;;;;;;;;5047420;28;20049;-59
2021/03/21 01:08:59;;;;;;;3.37;0.77;;;;;;;;;;5044459;28;20850;-59
2021/03/21 01:11:31;;;;;;;2.38;1.00;;;;;;;;;;5048352;28;20073;-59
2021/03/21 01:13:58;;;;;;;4.05;1.02;;;;;;;;;;5047338;28;20063;-59
2021/03/21 01:16:26;;;;;;;2.15;0.80;;;;;;;;;;5046730;28;20480;-59
2021/03/21 01:18:53;;;;;;;3.85;1.08;;;;;;;;;;5044887;28;20560;-59
2021/03/21 01:21:20;;;;;;;2.00;1.08;;;;;;;;;;5044374;28;20049;-59
2021/03/21 01:23:46;;;;;;;3.38;0.95;;;;;;;;;;5045728;28;20400;-59
2021/03/21 01:26:13;;;;;;;2.42;0.90;;;;;;;;;;5046956;28;20451;-59
2021/03/21 01:28:40;;;;;;;2.20;1.00;;;;;;;;;;5046079;28;20076;-59
2021/03/21 01:31:11;;;;;;;1.60;1.00;;;;;;;;;;5046403;28;20052;-59
2021/03/21 01:33:37;;;;;;;3.75;1.15;;;;;;;;;;5045872;28;20488;-59
2021/03/21 01:36:05;;;;;;;0.90;0.70;;;;;;;;;;5043962;28;20041;-59
2021/03/21 01:38:31;;;;;;;1.70;0.80;;;;;;;;;;5046505;28;20124;-59
2021/03/21 01:41:01;;;;;;;0.65;0.60;;;;;;;;;;5046166;28;20049;-59
2021/03/21 01:43:31;;;;;;;2.40;0.73;;;;;;;;;;5045509;28;20168;-59
2021/03/21 01:45:58;;;;;;;2.03;1.00;;;;;;;;;;5043930;28;20047;-59
2021/03/21 01:48:39;;;;;;;1.90;1.10;;;;;;;;;;5045353;28;20049;-59
2021/03/21 01:51:09;;;;;;;1.17;0.90;;;;;;;;;;5045017;28;20398;-59
2021/03/21 01:53:37;;;;;;;1.05;0.95;;;;;;;;;;5045689;28;20050;-59
2021/03/21 01:56:05;;;;;;;2.08;1.10;;;;;;;;;;5046516;28;20041;-59
2021/03/21 01:58:32;;;;;;;5.40;1.73;;;;;;;;;;5045694;28;20400;-59
2021/03/21 02:01:01;;;;;;;2.25;0.98;;;;;;;;;;5045998;28;20045;-59
2021/03/21 02:03:27;;;;;;;2.83;0.95;;;;;;;;;;5046128;28;20087;-59
2021/03/21 02:06:01;;;;;;;1.80;0.93;;;;;;;;;;5046924;28;20524;-59
2021/03/21 02:08:40;;;;;;;2.95;1.35;;;;;;;;;;5046126;28;20128;-59
2021/03/21 02:11:06;;;;;;;;;;;;;;;;;;5045665;28;20037;-59
2021/03/21 02:13:39;;;;;;;3.38;1.20;;;;;;;;;;5047476;28;19921;-59
2021/03/21 02:16:06;;;;;;;2.95;0.93;;;;;;;;;;5045765;28;20527;-59
2021/03/21 02:18:51;;;;;;;1.08;0.88;;;;;;;;;;5045065;28;20072;-59
2021/03/21 02:21:28;;;;;;;1.10;1.00;;;;;;;;;;5048348;28;20042;-59
2021/03/21 02:24:02;;;;;;;4.53;1.00;;;;;;;;;;5045199;28;20044;-59
2021/03/21 02:26:47;;;;;;;1.65;1.25;;;;;;;;;;5044422;28;20148;-59
2021/03/21 02:29:31;;;;;;;2.13;1.38;;;;;;;;;;5047217;28;20465;-59
2021/03/21 02:32:02;;;;;;;2.45;0.98;;;;;;;;;;5047656;28;20495;-59
2021/03/21 02:34:32;;;;;;;4.13;0.80;;;;;;;;;;5047757;28;20048;-59
2021/03/21 02:37:17;;;;;;;1.52;0.85;;;;;;;;;;5049933;28;20075;-59
2021/03/21 02:40:00;;;;;;;1.98;0.90;;;;;;;;;;5049246;28;20037;-59
2021/03/21 02:42:29;;;;;;;3.70;0.80;;;;;;;;;;5049315;28;20052;-59
2021/03/21 02:45:22;;;;;;;3.63;0.90;;;;;;;;;;5050090;28;20424;-59
2021/03/21 02:47:49;;;;;;;0.95;0.60;;;;;;;;;;5047648;28;20059;-59
2021/03/21 02:50:20;;;;;;;2.22;1.23;;;;;;;;;;5050443;28;20056;-59
2021/03/21 02:52:52;;;;;;;1.92;0.60;;;;;;;;;;5048813;28;20052;-59
2021/03/21 02:55:23;;;;;;;1.38;0.63;;;;;;;;;;5051972;28;20106;-58
2021/03/21 02:57:51;;;;;;;1.45;0.60;;;;;;;;;;5050601;28;20041;-58
2021/03/21 03:00:24;;;;;;;2.00;0.95;;;;;;;;;;5049787;28;20045;-59
2021/03/21 03:02:52;;;;;;;2.50;1.20;;;;;;;;;;5049240;28;20084;-61
2021/03/21 03:05:22;;;;;;;0.95;0.80;;;;;;;;;;5048017;28;20044;-58
2021/03/21 03:07:51;;;;;;;2.28;0.80;;;;;;;;;;5049655;28;20045;-58
2021/03/21 03:10:24;;;;;;;2.08;0.90;;;;;;;;;;5050043;28;20049;-58
2021/03/21 03:12:58;;;;;;;3.20;0.90;;;;;;;;;;5050156;28;20493;-58
2021/03/21 03:15:25;;;;;;;3.40;0.95;;;;;;;;;;5049724;28;20600;-58
2021/03/21 03:17:56;;;;;;;2.33;0.80;;;;;;;;;;5050645;28;20045;-58
2021/03/21 03:20:41;;;;;;;1.05;0.70;;;;;;;;;;5049540;28;20060;-58
2021/03/21 03:23:26;;;;;;;2.90;0.80;;;;;;;;;;5048202;28;20053;-58
2021/03/21 03:25:55;;;;;;;1.80;0.70;;;;;;;;;;5049169;28;20052;-59
2021/03/21 03:28:30;;;;;;;2.08;0.65;;;;;;;;;;5049905;28;20061;-58
2021/03/21 03:31:04;;;;;;;3.13;0.70;;;;;;;;;;5049420;28;20044;-58
2021/03/21 03:33:30;;;;;;;1.38;0.73;;;;;;;;;;5047661;28;20497;-59
2021/03/21 03:35:56;;;;;;;0.50;0.50;;;;;;;;;;5046149;28;20049;-59
2021/03/21 03:38:23;;;;;;;1.88;0.80;;;;;;;;;;5045776;28;20102;-58
2021/03/21 03:40:53;;;;;;;1.02;0.60;;;;;;;;;;5050548;28;20051;-58
2021/03/21 03:43:26;;;;;;;2.88;0.90;;;;;;;;;;5046873;28;20048;-58
2021/03/21 03:45:58;;;;;;;5.68;1.00;;;;;;;;;;5044331;28;20063;-58
2021/03/21 03:48:24;;;;;;;0.63;0.60;;;;;;;;;;5050138;28;20084;-58
2021/03/21 03:50:55;;;;;;;3.65;0.85;;;;;;;;;;5048413;28;20563;-59
2021/03/21 03:53:33;;;;;;;0.77;0.60;;;;;;;;;;5046070;28;20037;-58
2021/03/21 03:56:06;;;;;;;1.60;0.80;;;;;;;;;;5050283;28;20045;-58
2021/03/21 03:58:45;;;;;;;1.10;0.70;;;;;;;;;;5049317;28;20092;-58
2021/03/21 04:01:13;;;;;;;2.63;0.90;;;;;;;;;;5045262;28;20540;-58
2021/03/21 04:03:43;;;;;;;1.75;0.73;;;;;;;;;;5048034;28;20067;-58
2021/03/21 04:06:14;;;;;;;3.00;0.70;;;;;;;;;;5050995;28;20037;-58
2021/03/21 04:08:44;;;;;;;1.75;0.80;;;;;;;;;;5047048;28;20037;-58
2021/03/21 04:11:13;;;;;;;0.88;0.80;;;;;;;;;;5051065;28;20045;-58
2021/03/21 04:13:44;;;;;;;1.90;0.95;;;;;;;;;;5050277;28;20045;-58
2021/03/21 04:16:14;;;;;;;3.10;1.02;;;;;;;;;;5046447;28;20045;-58
2021/03/21 04:18:45;;;;;;;2.53;0.77;;;;;;;;;;5047068;28;20042;-58
2021/03/21 04:21:23;;;;;;;3.50;0.80;;;;;;;;;;5047927;28;20447;-58
2021/03/21 04:23:57;;;;;;;1.10;0.80;;;;;;;;;;5045931;28;20040;-58
2021/03/21 04:26:34;;;;;;;4.22;0.88;;;;;;;;;;5048767;28;20064;-58
2021/03/21 04:29:05;;;;;;;0.97;0.73;;;;;;;;;;5045548;28;20036;-58
2021/03/21 04:31:32;;;;;;;1.95;0.65;;;;;;;;;;5047173;28;20306;-58
2021/03/21 04:34:00;;;;;;;2.28;0.85;;;;;;;;;;5049204;28;20076;-58
2021/03/21 04:36:28;;;;;;;2.03;0.80;;;;;;;;;;5045872;28;20052;-58
2021/03/21 04:39:03;;;;;;;1.75;0.75;;;;;;;;;;5045319;28;20037;-58
2021/03/21 04:41:32;;;;;;;1.88;0.70;;;;;;;;;;5049288;28;20048;-58
2021/03/21 04:44:19;;;;;;;2.80;0.82;;;;;;;;;;5048534;28;20123;-58
2021/03/21 04:46:49;;;;;;;1.52;0.85;;;;;;;;;;5048243;28;20056;-58
2021/03/21 04:49:17;;;;;;;2.10;0.70;;;;;;;;;;5047410;28;20040;-58
2021/03/21 04:51:44;;;;;;;1.20;0.70;;;;;;;;;;5046036;28;20451;-58
2021/03/21 04:54:23;;;;;;;0.82;0.50;;;;;;;;;;5049819;28;20045;-58
2021/03/21 04:56:52;;;;;;;1.50;0.75;;;;;;;;;;5047724;28;20056;-58
2021/03/21 04:59:26;;;;;;;2.53;0.85;;;;;;;;;;5044645;28;20447;-58
2021/03/21 05:01:53;;;;;;;2.42;1.00;;;;;;;;;;5047073;28;20099;-58
2021/03/21 05:04:24;;;;;;;1.38;0.70;;;;;;;;;;5046593;28;20467;-58
2021/03/21 05:06:55;;;;;;;1.15;0.80;;;;;;;;;;5046795;28;20446;-58
2021/03/21 05:09:33;;;;;;;2.75;0.75;;;;;;;;;;5043958;28;20111;-58
2021/03/21 05:12:14;;;;;;;3.53;0.80;;;;;;;;;;5047427;28;20060;-58
2021/03/21 05:14:47;;;;;;;1.33;0.70;;;;;;;;;;5047298;28;20045;-58
2021/03/21 05:17:15;;;;;;;1.52;0.70;;;;;;;;;;5046214;28;20075;-58
2021/03/21 05:19:44;;;;;;;1.80;1.00;;;;;;;;;;5045725;28;20052;-58
2021/03/21 05:22:13;;;;;;;1.45;0.88;;;;;;;;;;5045771;28;20037;-58
2021/03/21 05:24:56;;;;;;;1.50;0.80;;;;;;;;;;5046231;28;20118;-58
2021/03/21 05:27:29;;;;;;;1.95;1.15;;;;;;;;;;5044172;28;20065;-58
2021/03/21 05:29:59;;;;;;;2.80;1.13;;;;;;;;;;5044467;28;20128;-57
2021/03/21 05:32:26;;;;;;;2.78;1.25;;;;;;;;;;5046027;28;20492;-58
2021/03/21 05:34:54;;;;;;;3.00;0.80;;;;;;;;;;5044641;28;20408;-60
2021/03/21 05:37:34;;;;;;;3.28;1.73;;;;;;;;;;5045250;28;20068;-58
2021/03/21 05:40:02;;;;;;;2.22;1.20;;;;;;;;;;5046445;28;20131;-58
2021/03/21 05:42:35;;;;;;;2.25;1.02;;;;;;;;;;5046972;28;20052;-58
2021/03/21 05:45:04;;;;;;;2.03;0.90;;;;;;;;;;5045725;28;20041;-58
2021/03/21 05:47:43;;;;;;;2.08;0.70;;;;;;;;;;5047148;28;20382;-59
2021/03/21 05:50:09;;;;;;;2.55;0.75;;;;;;;;;;5046366;28;20045;-58
2021/03/21 05:52:54;;;;;;;3.78;0.60;;;;;;;;;;5042226;28;20127;-58
2021/03/21 05:55:23;;;;;;;2.70;0.82;;;;;;;;;;5045125;28;20100;-59
2021/03/21 05:58:05;;;;;;;2.47;0.90;;;;;;;;;;5047157;28;20049;-58
2021/03/21 06:00:40;;;;;;;1.85;1.00;;;;;;;;;;5044177;28;20493;-59
2021/03/21 06:03:15;;;;;;;1.83;0.80;;;;;;;;;;5044015;28;20496;-58
2021/03/21 06:05:51;;;;;;;2.35;0.90;;;;;;;;;;5047581;28;20049;-58
2021/03/21 06:08:21;;;;;;;1.08;0.75;;;;;;;;;;5047012;28;20053;-58
2021/03/21 06:10:50;;;;;;;1.00;0.60;;;;;;;;;;5053401;28;20069;-58
2021/03/21 06:13:28;;;;;;;1.00;0.80;;;;;;;;;;5049944;28;20041;-58
2021/03/21 06:16:21;;;;;;;1.10;0.63;;;;;;;;;;5051336;28;20501;-57
2021/03/21 06:19:07;;;;;;;0.65;0.60;;;;;;;;;;5036532;28;20135;-59
2021/03/21 06:21:52;;;;;;;3.40;1.00;;;;;;;;;;5016114;28;20049;-58
2021/03/21 06:24:28;;;;;;;4.65;1.00;;;;;;;;;;5047233;28;20507;-58
2021/03/21 06:27:09;;;;;;;1.13;0.55;;;;;;;;;;5047275;28;20067;-58
2021/03/21 06:29:39;;;;;;;1.20;0.57;;;;;;;;;;5049864;28;20061;-58
2021/03/21 06:32:19;;;;;;;4.97;1.77;;;;;;;;;;5050704;28;20049;-58
2021/03/21 06:34:49;;;;;;;1.48;0.82;;;;;;;;;;5050748;28;20067;-58
2021/03/21 06:37:28;;;;;;;2.35;0.77;;;;;;;;;;5051184;28;20782;-58
2021/03/21 06:39:54;;;;;;;1.35;0.80;;;;;;;;;;5050998;28;20064;-58
2021/03/21 06:42:40;;;;;;;2.08;1.02;;;;;;;;;;5049225;28;20041;-58
2021/03/21 06:45:22;;;;;;;1.40;0.82;;;;;;;;;;5050699;28;20049;-57
2021/03/21 06:48:08;;;;;;;3.53;0.98;;;;;;;;;;5048637;28;20535;-58
2021/03/21 06:50:39;;;;;;;1.73;0.70;;;;;;;;;;5048224;28;20049;-58
2021/03/21 06:53:24;;;;;;;3.42;0.90;;;;;;;;;;5049047;28;20048;-57
2021/03/21 06:55:56;;;;;;;1.63;0.93;;;;;;;;;;5050323;28;20127;-58
2021/03/21 06:58:49;;;;;;;1.05;0.60;;;;;;;;;;5049508;28;20442;-58
2021/03/21 07:01:28;;;;;;;1.13;0.65;;;;;;;;;;5045918;28;20037;-58
2021/03/21 07:04:15;;;;;;;0.77;0.77;;;;;;;;;;5050351;28;20136;-58
2021/03/21 07:06:42;;;;;;;2.28;0.93;;;;;;;;;;5048528;28;20072;-58
2021/03/21 07:09:20;;;;;;;2.83;1.05;;;;;;;;;;5048082;28;20090;-58
2021/03/21 07:11:52;;;;;;;2.40;1.00;;;;;;;;;;5050059;28;20049;-58
2021/03/21 07:14:38;;;;;;;4.20;0.90;;;;;;;;;;5047520;28;20049;-58
2021/03/21 07:17:09;;;;;;;2.53;0.75;;;;;;;;;;5048529;28;20049;-58
2021/03/21 07:19:55;;;;;;;1.85;1.08;;;;;;;;;;5048128;28;20106;-58
2021/03/21 07:22:40;;;;;;;0.93;0.70;;;;;;;;;;5013561;28;20615;-58
2021/03/21 07:25:26;;;;;;;1.58;0.75;;;;;;;;;;5049274;28;20051;-58
2021/03/21 07:27:52;;;;;;;2.67;0.80;;;;;;;;;;5044610;28;20049;-58
2021/03/21 07:30:26;;;;;;;1.45;0.82;;;;;;;;;;5050184;28;20083;-58
2021/03/21 07:32:55;;;;;;;3.55;1.00;;;;;;;;;;5049863;28;20033;-58
2021/03/21 07:35:31;;;;;;;0.95;0.70;;;;;;;;;;5044728;28;20139;-58
2021/03/21 07:37:57;;;;;;;0.98;0.68;;;;;;;;;;5045748;28;20037;-58
2021/03/21 07:40:33;;;;;;;1.55;0.55;;;;;;;;;;5043777;28;20543;-58
2021/03/21 07:43:14;;;;;;;1.40;0.68;;;;;;;;;;5045397;28;20037;-58
2021/03/21 07:45:46;;;;;;;1.48;0.82;;;;;;;;;;5045774;28;20048;-58
2021/03/21 07:48:22;;;;;;;1.73;0.73;;;;;;;;;;5044665;28;20428;-58
2021/03/21 07:50:49;;;;;;;1.45;0.63;;;;;;;;;;5044203;28;20037;-59
2021/03/21 07:53:19;;;;;;;2.15;0.68;;;;;;;;;;5049696;28;20041;-57
2021/03/21 07:56:02;;;;;;;1.80;0.70;;;;;;;;;;5045562;28;20037;-58
2021/03/21 07:58:31;;;;;;;1.52;0.80;;;;;;;;;;5048137;28;20056;-58
2021/03/21 08:00:58;;;;;;;2.08;0.73;;;;;;;;;;5046592;28;20052;-58
2021/03/21 08:03:43;;;;;;;2.13;0.90;;;;;;;;;;5043235;28;20663;-58
2021/03/21 08:06:20;;;;;;;2.85;0.95;;;;;;;;;;5042559;28;20051;-58
2021/03/21 08:08:49;;;;;;;0.63;0.43;;;;;;;;;;5048113;28;20044;-58
2021/03/21 08:11:18;;;;;;;4.13;0.82;;;;;;;;;;5047359;28;20157;-59
2021/03/21 08:13:49;;;;;;;1.60;0.73;;;;;;;;;;5044619;28;20120;-59
2021/03/21 08:16:29;;;;;;;1.17;0.60;;;;;;;;;;5047777;28;20033;-58
2021/03/21 08:18:56;;;;;;;0.63;0.45;;;;;;;;;;5049861;28;20107;-58
2021/03/21 08:21:29;;;;;;;2.58;0.65;;;;;;;;;;5047012;28;20049;-58
2021/03/21 08:24:01;;;;;;;2.33;0.75;;;;;;;;;;5043704;28;20067;-59
2021/03/21 08:26:30;;;;;;;2.65;0.82;;;;;;;;;;5042843;28;20506;-59
2021/03/21 08:28:59;;;;;;;0.88;0.55;;;;;;;;;;5047042;28;20064;-59
2021/03/21 08:31:33;;;;;;;1.25;0.68;;;;;;;;;;5044073;28;20136;-59
2021/03/21 08:34:17;;;;;;;0.98;0.57;;;;;;;;;;5049453;28;20396;-59
2021/03/21 08:36:44;;;;;;;3.92;0.50;;;;;;;;;;5045680;28;20048;-59
2021/03/21 08:39:23;;;;;;;1.00;0.85;;;;;;;;;;5046867;28;20047;-59
2021/03/21 08:41:49;;;;;;;1.33;0.60;;;;;;;;;;5047751;28;20538;-59
2021/03/21 08:44:36;;;;;;;5.32;0.80;;;;;;;;;;5047966;28;20059;-59
2021/03/21 08:47:03;;;;;;;2.33;0.93;;;;;;;;;;5045432;28;20061;-59
2021/03/21 08:49:44;;;;;;;1.67;0.68;;;;;;;;;;5048495;28;20045;-59
2021/03/21 08:52:26;;;;;;;5.03;0.90;;;;;;;;;;5048898;28;20116;-59
2021/03/21 08:54:52;;;;;;;6.72;0.50;;;;;;;;;;5042074;28;20044;-59
2021/03/21 08:57:30;;;;;;;1.10;0.60;;;;;;;;;;5042738;28;20517;-59
2021/03/21 09:00:12;;;;;;;0.32;0.32;;;;;;;;;;5038451;28;20048;-59
2021/03/21 09:02:39;;;;;;;0.95;0.60;;;;;;;;;;5044652;28;20047;-59
2021/03/21 09:05:06;;;;;;;;;;;;;;;;;;5046496;28;20048;-59
2021/03/21 09:07:33;;;;;;;1.55;0.50;;;;;;;;;;5044721;28;19925;-59
2021/03/21 09:10:11;;;;;;;2.70;0.75;;;;;;;;;;5048176;28;20401;-59
2021/03/21 09:12:39;;;;;;;1.90;0.52;;;;;;;;;;5046982;28;20041;-59
2021/03/21 09:15:18;;;;;;;2.13;0.50;;;;;;;;;;5044507;28;20037;-59
2021/03/21 09:18:06;;;;;;;2.08;0.75;;;;;;;;;;5042987;28;20488;-59
2021/03/21 09:20:34;;;;;;;1.47;0.67;;;;;;;;;;5042320;28;20080;-59
2021/03/21 09:23:20;;;;;;;1.73;0.60;;;;;;;;;;5044108;28;20095;-59
2021/03/21 09:25:51;;;;;;;1.60;0.65;;;;;;;;;;5043011;28;20037;-60
2021/03/21 09:28:17;;;;;;;2.92;0.70;;;;;;;;;;5045109;28;20050;-59
2021/03/21 09:30:44;;;;;;;2.05;0.55;;;;;;;;;;5046035;28;20401;-59
2021/03/21 09:33:14;;;;;;;4.50;0.82;;;;;;;;;;5044564;28;20496;-59
2021/03/21 09:35:45;;;;;;;1.45;0.55;;;;;;;;;;5040365;28;20497;-59
2021/03/21 09:38:14;;;;;;;1.52;0.70;;;;;;;;;;5044025;28;20041;-60
2021/03/21 09:40:41;;;;;;;1.70;0.80;;;;;;;;;;5042113;28;20752;-59
2021/03/21 09:43:13;;;;;;;1.45;0.70;;;;;;;;;;5045098;28;20118;-59
2021/03/21 09:45:44;;;;;;;1.15;0.60;;;;;;;;;;5044554;28;20386;-59
2021/03/21 09:48:15;;;;;;;1.80;0.68;;;;;;;;;;5044813;28;20057;-59
2021/03/21 09:50:45;;;;;;;1.40;0.57;;;;;;;;;;5047265;28;20496;-59
2021/03/21 09:53:30;;;;;;;2.58;0.52;;;;;;;;;;5040845;28;20045;-59
2021/03/21 09:55:58;;;;;;;2.55;0.90;;;;;;;;;;5044038;28;20550;-59
2021/03/21 09:58:28;;;;;;;3.78;0.70;;;;;;;;;;5042614;28;20045;-59
2021/03/21 10:00:55;;;;;;;1.35;0.82;;;;;;;;;;5043659;28;20319;-59
2021/03/21 10:03:21;;;;;;;0.50;0.50;;;;;;;;;;5045922;28;20041;-59
2021/03/21 10:05:53;;;;;;;2.97;0.70;;;;;;;;;;5045267;28;20046;-59
2021/03/21 10:08:38;;;;;;;2.33;0.85;;;;;;;;;;5046249;28;20095;-60
2021/03/21 10:11:05;;;;;;;10.77;2.67;;;;;;;;;;5045162;28;20045;-59
2021/03/21 10:13:33;;;;;;;1.17;0.73;;;;;;;;;;5046660;28;20107;-59
2021/03/21 10:16:08;;;;;;;2.72;0.75;;;;;;;;;;5044144;28;20059;-59
2021/03/21 10:18:39;;;;;;;3.25;0.90;;;;;;;;;;5044232;28;20048;-59
2021/03/21 10:21:05;;;;;;;1.23;0.63;;;;;;;;;;5043166;28;20033;-59
2021/03/21 10:23:59;;;;;;;1.65;0.90;;;;;;;;;;5041275;28;20107;-59
2021/03/21 10:26:27;;;;;;;2.70;0.68;;;;;;;;;;5034676;28;20057;-59
2021/03/21 10:28:57;;;;;;;1.88;0.60;;;;;;;;;;5045316;28;20049;-59
2021/03/21 10:31:23;;;;;;;1.42;0.45;;;;;;;;;;5040449;28;20535;-59
2021/03/21 10:33:51;;;;;;;3.10;0.60;;;;;;;;;;5043174;28;20036;-59
2021/03/21 10:36:36;;;;;;;1.25;0.55;;;;;;;;;;5049095;28;20335;-59
2021/03/21 10:39:02;;;;;;;5.97;0.88;;;;;;;;;;5044786;28;20041;-60
2021/03/21 10:41:47;;;;;;;0.77;0.45;;;;;;;;;;5048820;28;20072;-59
2021/03/21 10:44:14;;;;;;;0.98;0.50;;;;;;;;;;5047749;28;20037;-59
2021/03/21 10:46:44;;;;;;;2.20;0.65;;;;;;;;;;5047138;28;20618;-59
2021/03/21 10:49:11;;;;;;;1.02;0.55;;;;;;;;;;5043807;28;20040;-59
2021/03/21 10:51:57;;;;;;;2.58;0.57;;;;;;;;;;5044191;28;20037;-59
2021/03/21 10:54:24;;;;;;;1.73;0.70;;;;;;;;;;5046546;28;20037;-59
2021/03/21 10:57:09;;;;;;;1.05;0.40;;;;;;;;;;5047108;28;20095;-59
2021/03/21 10:59:35;;;;;;;1.17;0.70;;;;;;;;;;5049895;28;20045;-59
2021/03/21 11:02:20;;;;;;;2.17;0.73;;;;;;;;;;5048302;28;20141;-59
2021/03/21 11:04:58;;;;;;;1.75;0.68;;;;;;;;;;5051326;28;20040;-60
2021/03/21 11:07:24;;;;;;;2.08;0.70;;;;;;;;;;5051808;28;20052;-59
2021/03/21 11:09:55;;;;;;;1.90;0.60;;;;;;;;;;5050766;28;20047;-58
2021/03/21 11:12:33;;;;;;;0.95;0.30;;;;;;;;;;5051323;28;20049;-58
2021/03/21 11:15:18;;;;;;;0.60;0.40;;;;;;;;;;5048067;28;20041;-58
2021/03/21 11:17:44;;;;;;;2.58;0.77;;;;;;;;;;5051262;28;20036;-58
2021/03/21 11:20:32;;;;;;;0.90;0.52;;;;;;;;;;5051557;28;20053;-59
2021/03/21 11:22:58;;;;;;;1.55;0.70;;;;;;;;;;5044952;28;20045;-59
2021/03/21 11:25:32;;;;;;;1.10;0.50;;;;;;;;;;5050601;28;20037;-58
2021/03/21 11:27:58;;;;;;;0.38;0.30;;;;;;;;;;5048000;28;20063;-58
2021/03/21 11:30:28;;;;;;;0.50;0.30;;;;;;;;;;5050087;28;20041;-59
2021/03/21 11:33:14;;;;;;;1.42;0.55;;;;;;;;;;5049941;28;20056;-58
2021/03/21 11:35:45;;;;;;;0.90;0.50;;;;;;;;;;5050292;28;20489;-58
2021/03/21 11:38:29;;;;;;;3.20;0.93;;;;;;;;;;5050758;28;20389;-58
2021/03/21 11:40:55;;;;;;;2.20;0.77;;;;;;;;;;5052113;28;20045;-59
2021/03/21 11:43:22;;;;;;;2.35;0.60;;;;;;;;;;5045866;28;20041;-58
2021/03/21 11:45:49;;;;;;;1.38;0.50;;;;;;;;;;5048192;28;20504;-58
2021/03/21 11:48:18;;;;;;;2.17;0.52;;;;;;;;;;5049522;28;20044;-58
2021/03/21 11:50:46;;;;;;;0.60;0.43;;;;;;;;;;5050575;28;20546;-58
2021/03/21 11:53:17;;;;;;;0.80;0.40;;;;;;;;;;5046074;28;20060;-58
2021/03/21 11:55:47;;;;;;;2.05;0.70;;;;;;;;;;5048158;28;20090;-58
2021/03/21 11:58:28;;;;;;;1.35;0.52;;;;;;;;;;5049047;28;20493;-59
2021/03/21 12:00:55;;;;;;;0.98;0.47;;;;;;;;;;5044894;28;20064;-58
2021/03/21 12:03:23;;;;;;;0.47;0.45;;;;;;;;;;5050886;28;20045;-59
2021/03/21 12:06:17;;;;;;;2.50;0.60;;;;;;;;;;5049576;28;20122;-58
2021/03/21 12:08:43;;;;;;;0.95;0.50;;;;;;;;;;5048787;28;20334;-58
2021/03/21 12:11:28;;;;;;;0.88;0.50;;;;;;;;;;5049605;28;20492;-59
2021/03/21 12:13:55;;;;;;;1.52;0.60;;;;;;;;;;5048298;28;20051;-58
2021/03/21 12:16:38;;;;;;;1.15;0.50;;;;;;;;;;5048822;28;20420;-58
2021/03/21 12:19:31;;;;;;;0.50;0.40;;;;;;;;;;5047990;28;20420;-58
2021/03/21 12:22:18;;;;;;;1.60;0.65;;;;;;;;;;5048052;28;20053;-58
2021/03/21 12:24:51;;;;;;;0.50;0.40;;;;;;;;;;5049822;28;20044;-58
2021/03/21 12:27:31;;;;;;;1.83;0.70;;;;;;;;;;5047863;28;20528;-58
2021/03/21 12:30:03;;;;;;;1.20;0.63;;;;;;;;;;5048048;28;20048;-58
2021/03/21 12:32:31;;;;;;;2.65;0.70;;;;;;;;;;5050075;28;20041;-58
2021/03/21 12:34:58;;;;;;;1.42;0.70;;;;;;;;;;5049832;28;20045;-58
2021/03/21 12:37:26;;;;;;;0.90;0.57;;;;;;;;;;5048515;28;20373;-60
2021/03/21 12:40:07;;;;;;;1.17;0.52;;;;;;;;;;5046871;28;20041;-58
2021/03/21 12:42:38;;;;;;;0.95;0.50;;;;;;;;;;5048957;28;20595;-58
2021/03/21 12:45:11;;;;;;;1.23;0.52;;;;;;;;;;5046873;28;20071;-58
2021/03/21 12:47:39;;;;;;;1.77;0.70;;;;;;;;;;5047818;28;20048;-58
2021/03/21 12:50:24;;;;;;;4.50;1.05;;;;;;;;;;5048448;28;20705;-59
2021/03/21 12:52:51;;;;;;;2.28;0.90;;;;;;;;;;5047534;28;20049;-58
2021/03/21 12:55:17;;;;;;;2.20;0.90;;;;;;;;;;5047180;28;20045;-58
2021/03/21 12:57:44;;;;;;;1.35;0.77;;;;;;;;;;5046031;28;20044;-59
2021/03/21 13:00:22;;;;;;;2.92;0.77;;;;;;;;;;5045095;28;20481;-58
2021/03/21 13:02:52;;;;;;;2.38;0.98;;;;;;;;;;5049414;28;20498;-59
2021/03/21 13:05:22;;;;;;;1.35;0.77;;;;;;;;;;5028269;28;20041;-58
2021/03/21 13:07:48;;;;;;;5.82;1.10;;;;;;;;;;5046954;28;20049;-58
2021/03/21 13:10:14;;;;;;;5.15;0.93;;;;;;;;;;5046495;28;20046;-58
2021/03/21 13:12:41;;;;;;;3.00;1.20;;;;;;;;;;5045505;28;20048;-59
2021/03/21 13:15:08;;;;;;;5.22;1.40;;;;;;;;;;5047709;28;20060;-58
2021/03/21 13:17:34;;;;;;;2.95;1.05;;;;;;;;;;5046781;28;20041;-58
2021/03/21 13:20:01;;;;;;;4.40;1.38;;;;;;;;;;5050540;28;20040;-58
2021/03/21 13:22:27;;;;;;;3.08;0.90;;;;;;;;;;5045999;28;20067;-59
2021/03/21 13:24:53;;;;;;;5.00;1.50;;;;;;;;;;5048352;28;20044;-59
2021/03/21 13:27:19;;;;;;;4.30;1.23;;;;;;;;;;5046584;28;20045;-58
2021/03/21 13:29:45;;;;;;;3.00;1.05;;;;;;;;;;5046275;28;20044;-58
2021/03/21 13:32:12;;;;;;;3.78;1.23;;;;;;;;;;5047302;28;20041;-58
2021/03/21 13:34:38;;;;;;;2.28;0.95;;;;;;;;;;5044570;28;20037;-58
2021/03/21 13:37:17;;;;;;;5.22;0.80;;;;;;;;;;5047715;28;20120;-58
2021/03/21 13:39:45;;;;;;;5.22;1.00;;;;;;;;;;5047480;28;20045;-59
2021/03/21 13:42:11;;;;;;;4.80;1.02;;;;;;;;;;5047007;28;20040;-59
2021/03/21 13:44:40;;;;;;;2.47;0.90;;;;;;;;;;5047448;28;20650;-59
2021/03/21 13:47:07;;;;;;;5.63;1.45;;;;;;;;;;5046577;28;20048;-59
2021/03/21 13:49:33;;;;;;;3.72;1.27;;;;;;;;;;5049249;28;20107;-59
2021/03/21 13:51:59;;;;;;;2.55;0.90;;;;;;;;;;5047350;28;20049;-59
2021/03/21 13:54:25;;;;;;;3.30;0.73;;;;;;;;;;5048081;28;20071;-59
2021/03/21 13:56:52;;;;;;;2.88;0.88;;;;;;;;;;5046187;28;20076;-59
2021/03/21 13:59:18;;;;;;;6.43;1.27;;;;;;;;;;5048792;28;20044;-59
2021/03/21 14:01:44;;;;;;;2.88;1.13;;;;;;;;;;5047530;28;20049;-59
2021/03/21 14:04:10;;;;;;;3.45;1.17;;;;;;;;;;5044406;28;20041;-59
2021/03/21 14:06:36;;;;;;;2.40;0.93;;;;;;;;;;5044078;28;20110;-59
2021/03/21 14:09:03;;;;;;;2.92;0.90;;;;;;;;;;5046743;28;20045;-59
2021/03/21 14:11:29;;;;;;;3.38;1.02;;;;;;;;;;5047716;28;20080;-59
2021/03/21 14:13:55;;;;;;;6.22;1.05;;;;;;;;;;5044200;28;20064;-59
2021/03/21 14:16:21;;;;;;;2.05;0.88;;;;;;;;;;5045959;28;20041;-59
2021/03/21 14:18:47;;;;;;;2.25;0.77;;;;;;;;;;5044324;28;20435;-59
2021/03/21 14:21:14;;;;;;;2.35;1.20;;;;;;;;;;5046154;28;20041;-59
2021/03/21 14:23:40;;;;;;;3.70;1.00;;;;;;;;;;5041905;28;20071;-59
2021/03/21 14:26:06;;;;;;;5.53;1.42;;;;;;;;;;5046044;28;20061;-59
2021/03/21 14:28:35;;;;;;;3.83;0.90;;;;;;;;;;5044581;28;20056;-59
2021/03/21 14:31:02;;;;;;;2.30;0.90;;;;;;;;;;5044624;28;20552;-58
2021/03/21 14:33:28;;;;;;;4.22;1.00;;;;;;;;;;5045875;28;20067;-59
2021/03/21 14:35:55;;;;;;;3.50;0.80;;;;;;;;;;5047170;28;20064;-59
2021/03/21 14:38:22;;;;;;;2.28;0.98;;;;;;;;;;5049603;28;20045;-59
2021/03/21 14:40:49;;;;;;;1.35;1.00;;;;;;;;;;5047529;28;20041;-59
2021/03/21 14:43:16;;;;;;;3.57;1.30;;;;;;;;;;5051578;28;20514;-59
2021/03/21 14:45:43;;;;;;;4.70;1.20;;;;;;;;;;5050429;28;20511;-59
2021/03/21 14:48:09;;;;;;;3.25;0.80;;;;;;;;;;5049239;28;20037;-59
2021/03/21 14:50:36;;;;;;;1.63;0.73;;;;;;;;;;5047178;28;20076;-59
2021/03/21 14:53:06;;;;;;;3.53;0.98;;;;;;;;;;5044444;28;20049;-59
2021/03/21 14:55:33;;;;;;;1.70;0.70;;;;;;;;;;5047240;28;20056;-59
2021/03/21 14:57:59;;;;;;;2.08;0.70;;;;;;;;;;5045589;28;20127;-59
2021/03/21 15:00:28;;;;;;;3.83;0.93;;;;;;;;;;5043978;28;20117;-59
2021/03/21 15:02:54;;;;;;;5.25;0.80;;;;;;;;;;5051056;28;20135;-59
2021/03/21 15:05:22;;;;;;;2.67;1.00;;;;;;;;;;5046921;28;20064;-59
2021/03/21 15:07:48;;;;;;;2.60;0.82;;;;;;;;;;5050387;28;20140;-59
2021/03/21 15:10:15;;;;;;;3.55;0.95;;;;;;;;;;5049759;28;20061;-59